Nha Trang, Viet Nam

6:23 PM ICT on August 31, 2015 (GMT +0700)
Cam Ranh Bay | | Change Station
CLOSE
Current Station
Airport
Location: Cam Ranh Bay,
Elevation: 39 ft
Nearby Weather Stations

Elev 39 ft 12.00 °N, 109.22 °E | Updated 23 minutes ago

Partly Cloudy
Partly Cloudy
91 °F
Feels Like 105 °F
N
4
Wind Variable Wind from North

Today
High -- | Low -- °F
--% Chance of Precip.
Yesterday
High -- | Low -- °F
Precip. -- in
5:32 AM 5:54 PM
Waning Gibbous, 96% visible
Pressure 29.74 in
Visibility 6.2 miles
Clouds Few 1700 ft
Heat Index 105 °F
Dew Point 77 °F
Humidity 63%
Rainfall 0.00 in
Snow Depth Not available.
UV 0 out of 12
Pollen Not available.
Air Quality Not available.
Flu Activity Not available.
METAR VVCR 311100Z 01003KT 350V070 9999 FEW017 33/25 Q1007 NOSIG
Pressure 29.74 in
Visibility 6.2 miles
Clouds Few 1700 ft
Heat Index 105 °F
Dew Point 77 °F
Humidity 63%
Rainfall 0.00 in
Snow Depth Not available.
UV 0 out of 12
Pollen Not available.
Air Quality Not available.
Flu Activity Not available.
METAR VVCR 311100Z 01003KT 350V070 9999 FEW017 33/25 Q1007 NOSIG

10-Day Weather Forecast

×

Almanac

Astronomy

Aug. 31, 2015 Rise Set
Actual Time
Civil Twilight
Nautical Twilight
Astronomical Twilight
Moon
Length of Visible Light
Length of Day
Tomorrow will be .
, % of the Moon is Illuminated

Today's Extremes

Country Highs Country Lows

Community

WunderPhotos

Upload Photos

1,851,217 photos uploaded!

WunderBlogs® & News

Nearby

Air Quality

  Air Quality AQ Index Pollutant
Not available.

Snow Depth

Station Depth Elevation

Earthquake Activity

City Distance Mag. Time & Date
Minimum magnitude displayed is 2.5.

Coastal Water Temperatures

Place Temperature

Stations

Nearby Weather Stations

Station Location Temp. Windchill Dew Point Humidity Wind Precip. Elev Updated Type